sensor_id;sensor_type;location;lat;lon;timestamp;P1;durP1;ratioP1;P2;durP2;ratioP2
21886;SDS011;11108;49.988;8.182;2023-03-20T00:00:51;3.87;;;1.70;;
21886;SDS011;11108;49.988;8.182;2023-03-20T00:03:16;1.73;;;1.30;;
21886;SDS011;11108;49.988;8.182;2023-03-20T00:05:42;2.93;;;1.30;;
21886;SDS011;11108;49.988;8.182;2023-03-20T00:08:07;1.30;;;1.20;;
21886;SDS011;11108;49.988;8.182;2023-03-20T00:10:34;2.77;;;1.23;;
21886;SDS011;11108;49.988;8.182;2023-03-20T00:13:00;1.27;;;1.17;;
21886;SDS011;11108;49.988;8.182;2023-03-20T00:15:30;1.27;;;1.17;;
21886;SDS011;11108;49.988;8.182;2023-03-20T00:17:56;0.87;;;0.80;;
21886;SDS011;11108;49.988;8.182;2023-03-20T00:20:22;1.70;;;1.13;;
21886;SDS011;11108;49.988;8.182;2023-03-20T00:22:47;2.20;;;1.40;;
21886;SDS011;11108;49.988;8.182;2023-03-20T00:25:17;1.13;;;0.83;;
21886;SDS011;11108;49.988;8.182;2023-03-20T00:27:43;1.93;;;1.40;;
21886;SDS011;11108;49.988;8.182;2023-03-20T00:30:51;2.17;;;1.10;;
21886;SDS011;11108;49.988;8.182;2023-03-20T00:32:57;1.10;;;1.10;;
21886;SDS011;11108;49.988;8.182;2023-03-20T00:35:24;1.57;;;1.13;;
21886;SDS011;11108;49.988;8.182;2023-03-20T00:37:50;2.23;;;1.10;;
21886;SDS011;11108;49.988;8.182;2023-03-20T00:40:15;0.93;;;0.93;;
21886;SDS011;11108;49.988;8.182;2023-03-20T00:42:41;0.80;;;0.80;;
21886;SDS011;11108;49.988;8.182;2023-03-20T00:45:09;1.30;;;1.00;;
21886;SDS011;11108;49.988;8.182;2023-03-20T00:47:36;1.27;;;1.17;;
21886;SDS011;11108;49.988;8.182;2023-03-20T00:50:01;1.27;;;1.10;;
21886;SDS011;11108;49.988;8.182;2023-03-20T00:52:31;1.37;;;1.20;;
21886;SDS011;11108;49.988;8.182;2023-03-20T00:54:56;1.40;;;1.23;;
21886;SDS011;11108;49.988;8.182;2023-03-20T00:57:23;1.30;;;1.30;;
21886;SDS011;11108;49.988;8.182;2023-03-20T01:00:12;0.87;;;0.87;;
21886;SDS011;11108;49.988;8.182;2023-03-20T01:02:38;1.10;;;1.00;;
21886;SDS011;11108;49.988;8.182;2023-03-20T01:05:03;1.00;;;1.00;;
21886;SDS011;11108;49.988;8.182;2023-03-20T01:07:29;1.57;;;1.30;;
21886;SDS011;11108;49.988;8.182;2023-03-20T01:09:55;1.20;;;1.10;;
21886;SDS011;11108;49.988;8.182;2023-03-20T01:12:20;1.77;;;1.10;;
21886;SDS011;11108;49.988;8.182;2023-03-20T01:14:48;1.20;;;1.20;;
21886;SDS011;11108;49.988;8.182;2023-03-20T01:17:16;1.40;;;1.30;;
21886;SDS011;11108;49.988;8.182;2023-03-20T01:19:42;1.00;;;1.00;;
21886;SDS011;11108;49.988;8.182;2023-03-20T01:22:07;1.23;;;1.13;;
21886;SDS011;11108;49.988;8.182;2023-03-20T01:24:33;1.60;;;1.07;;
21886;SDS011;11108;49.988;8.182;2023-03-20T01:26:58;1.07;;;1.07;;
21886;SDS011;11108;49.988;8.182;2023-03-20T01:29:27;1.43;;;1.33;;
21886;SDS011;11108;49.988;8.182;2023-03-20T01:31:53;1.20;;;1.13;;
21886;SDS011;11108;49.988;8.182;2023-03-20T01:34:18;1.03;;;0.97;;
21886;SDS011;11108;49.988;8.182;2023-03-20T01:36:49;1.03;;;1.03;;
21886;SDS011;11108;49.988;8.182;2023-03-20T01:39:14;1.13;;;1.10;;
21886;SDS011;11108;49.988;8.182;2023-03-20T01:41:41;1.23;;;1.20;;
21886;SDS011;11108;49.988;8.182;2023-03-20T01:44:17;1.80;;;1.07;;
21886;SDS011;11108;49.988;8.182;2023-03-20T01:46:43;1.33;;;1.20;;
21886;SDS011;11108;49.988;8.182;2023-03-20T01:51:43;1.00;;;1.00;;
21886;SDS011;11108;49.988;8.182;2023-03-20T01:54:12;1.17;;;1.17;;
21886;SDS011;11108;49.988;8.182;2023-03-20T01:56:41;1.27;;;1.20;;
21886;SDS011;11108;49.988;8.182;2023-03-20T01:59:09;1.47;;;1.00;;
21886;SDS011;11108;49.988;8.182;2023-03-20T02:01:36;1.30;;;1.00;;
21886;SDS011;11108;49.988;8.182;2023-03-20T02:04:03;2.47;;;1.47;;
21886;SDS011;11108;49.988;8.182;2023-03-20T02:06:29;1.40;;;0.90;;
21886;SDS011;11108;49.988;8.182;2023-03-20T02:08:54;2.53;;;1.10;;
21886;SDS011;11108;49.988;8.182;2023-03-20T02:11:20;2.23;;;1.17;;
21886;SDS011;11108;49.988;8.182;2023-03-20T02:13:47;1.23;;;0.87;;
21886;SDS011;11108;49.988;8.182;2023-03-20T02:16:14;1.03;;;0.87;;
21886;SDS011;11108;49.988;8.182;2023-03-20T02:18:40;1.47;;;1.20;;
21886;SDS011;11108;49.988;8.182;2023-03-20T02:36:36;1.00;;;1.00;;
21886;SDS011;11108;49.988;8.182;2023-03-20T02:44:07;1.77;;;1.30;;
21886;SDS011;11108;49.988;8.182;2023-03-20T02:46:52;1.20;;;1.10;;
21886;SDS011;11108;49.988;8.182;2023-03-20T02:49:23;1.20;;;1.10;;
21886;SDS011;11108;49.988;8.182;2023-03-20T02:56:49;1.00;;;1.00;;
21886;SDS011;11108;49.988;8.182;2023-03-20T03:01:46;1.10;;;1.10;;
21886;SDS011;11108;49.988;8.182;2023-03-20T03:04:15;1.00;;;1.00;;
21886;SDS011;11108;49.988;8.182;2023-03-20T03:06:42;3.13;;;1.20;;
21886;SDS011;11108;49.988;8.182;2023-03-20T03:09:10;0.97;;;0.97;;
21886;SDS011;11108;49.988;8.182;2023-03-20T03:11:37;1.00;;;1.00;;
21886;SDS011;11108;49.988;8.182;2023-03-20T03:14:04;1.23;;;1.23;;
21886;SDS011;11108;49.988;8.182;2023-03-20T03:16:31;1.00;;;1.00;;
21886;SDS011;11108;49.988;8.182;2023-03-20T03:19:00;1.10;;;1.10;;
21886;SDS011;11108;49.988;8.182;2023-03-20T03:21:27;1.10;;;1.10;;
21886;SDS011;11108;49.988;8.182;2023-03-20T03:23:53;1.10;;;1.10;;
21886;SDS011;11108;49.988;8.182;2023-03-20T03:26:29;1.10;;;1.00;;
21886;SDS011;11108;49.988;8.182;2023-03-20T03:28:57;1.10;;;1.10;;
21886;SDS011;11108;49.988;8.182;2023-03-20T03:31:25;1.10;;;1.10;;
21886;SDS011;11108;49.988;8.182;2023-03-20T03:33:52;1.00;;;1.00;;
21886;SDS011;11108;49.988;8.182;2023-03-20T03:36:34;1.03;;;1.03;;
21886;SDS011;11108;49.988;8.182;2023-03-20T03:41:42;0.80;;;0.80;;
21886;SDS011;11108;49.988;8.182;2023-03-20T03:44:13;1.43;;;1.23;;
21886;SDS011;11108;49.988;8.182;2023-03-20T03:46:45;1.30;;;1.20;;
21886;SDS011;11108;49.988;8.182;2023-03-20T03:49:16;0.90;;;0.90;;
21886;SDS011;11108;49.988;8.182;2023-03-20T03:51:44;0.90;;;0.90;;
21886;SDS011;11108;49.988;8.182;2023-03-20T03:54:15;1.30;;;1.20;;
21886;SDS011;11108;49.988;8.182;2023-03-20T03:56:42;1.00;;;1.00;;
21886;SDS011;11108;49.988;8.182;2023-03-20T03:59:09;1.10;;;1.10;;
21886;SDS011;11108;49.988;8.182;2023-03-20T04:01:35;1.27;;;1.27;;
21886;SDS011;11108;49.988;8.182;2023-03-20T04:04:03;1.20;;;1.10;;
21886;SDS011;11108;49.988;8.182;2023-03-20T04:06:30;1.30;;;1.20;;
21886;SDS011;11108;49.988;8.182;2023-03-20T04:08:55;1.37;;;1.27;;
21886;SDS011;11108;49.988;8.182;2023-03-20T04:11:21;1.00;;;1.00;;
21886;SDS011;11108;49.988;8.182;2023-03-20T04:13:48;1.60;;;1.37;;
21886;SDS011;11108;49.988;8.182;2023-03-20T04:16:14;1.00;;;1.00;;
21886;SDS011;11108;49.988;8.182;2023-03-20T04:18:40;1.10;;;1.10;;
21886;SDS011;11108;49.988;8.182;2023-03-20T04:21:06;1.17;;;1.17;;
21886;SDS011;11108;49.988;8.182;2023-03-20T04:23:31;1.23;;;1.23;;
21886;SDS011;11108;49.988;8.182;2023-03-20T04:25:57;1.30;;;1.30;;
21886;SDS011;11108;49.988;8.182;2023-03-20T04:28:22;1.00;;;1.00;;
21886;SDS011;11108;49.988;8.182;2023-03-20T04:30:57;1.30;;;1.30;;
21886;SDS011;11108;49.988;8.182;2023-03-20T04:33:23;1.30;;;1.23;;
21886;SDS011;11108;49.988;8.182;2023-03-20T04:35:49;1.47;;;1.37;;
21886;SDS011;11108;49.988;8.182;2023-03-20T04:38:14;1.57;;;1.47;;
21886;SDS011;11108;49.988;8.182;2023-03-20T04:40:40;1.30;;;1.20;;
21886;SDS011;11108;49.988;8.182;2023-03-20T04:43:05;1.67;;;1.50;;
21886;SDS011;11108;49.988;8.182;2023-03-20T04:45:30;1.30;;;1.30;;
21886;SDS011;11108;49.988;8.182;2023-03-20T04:47:56;1.53;;;1.43;;
21886;SDS011;11108;49.988;8.182;2023-03-20T04:50:21;1.60;;;1.50;;
21886;SDS011;11108;49.988;8.182;2023-03-20T04:52:46;2.80;;;1.70;;
21886;SDS011;11108;49.988;8.182;2023-03-20T04:55:11;1.77;;;1.67;;
21886;SDS011;11108;49.988;8.182;2023-03-20T04:57:36;1.80;;;1.33;;
21886;SDS011;11108;49.988;8.182;2023-03-20T05:00:02;1.33;;;1.33;;
21886;SDS011;11108;49.988;8.182;2023-03-20T05:02:28;1.60;;;1.60;;
21886;SDS011;11108;49.988;8.182;2023-03-20T05:04:53;1.63;;;1.53;;
21886;SDS011;11108;49.988;8.182;2023-03-20T05:07:19;1.83;;;1.73;;
21886;SDS011;11108;49.988;8.182;2023-03-20T05:09:44;1.90;;;1.73;;
21886;SDS011;11108;49.988;8.182;2023-03-20T05:12:09;1.47;;;1.37;;
21886;SDS011;11108;49.988;8.182;2023-03-20T05:14:35;1.43;;;1.43;;
21886;SDS011;11108;49.988;8.182;2023-03-20T05:17:00;1.30;;;1.30;;
21886;SDS011;11108;49.988;8.182;2023-03-20T05:19:25;1.53;;;1.43;;
21886;SDS011;11108;49.988;8.182;2023-03-20T05:21:51;1.43;;;1.33;;
21886;SDS011;11108;49.988;8.182;2023-03-20T05:24:16;1.17;;;1.13;;
21886;SDS011;11108;49.988;8.182;2023-03-20T05:26:41;1.37;;;1.37;;
21886;SDS011;11108;49.988;8.182;2023-03-20T05:29:07;1.57;;;1.50;;
21886;SDS011;11108;49.988;8.182;2023-03-20T05:31:32;1.30;;;1.30;;
21886;SDS011;11108;49.988;8.182;2023-03-20T05:33:57;2.00;;;1.77;;
21886;SDS011;11108;49.988;8.182;2023-03-20T05:36:23;1.50;;;1.40;;
21886;SDS011;11108;49.988;8.182;2023-03-20T05:38:48;1.40;;;1.40;;
21886;SDS011;11108;49.988;8.182;2023-03-20T05:41:13;1.60;;;1.50;;
21886;SDS011;11108;49.988;8.182;2023-03-20T05:43:38;1.60;;;1.50;;
21886;SDS011;11108;49.988;8.182;2023-03-20T05:46:03;1.70;;;1.60;;
21886;SDS011;11108;49.988;8.182;2023-03-20T05:48:29;1.67;;;1.57;;
21886;SDS011;11108;49.988;8.182;2023-03-20T05:50:54;1.70;;;1.60;;
21886;SDS011;11108;49.988;8.182;2023-03-20T05:53:19;2.00;;;1.90;;
21886;SDS011;11108;49.988;8.182;2023-03-20T05:55:45;1.93;;;1.83;;
21886;SDS011;11108;49.988;8.182;2023-03-20T05:58:10;1.80;;;1.70;;
21886;SDS011;11108;49.988;8.182;2023-03-20T06:00:36;1.77;;;1.67;;
21886;SDS011;11108;49.988;8.182;2023-03-20T06:03:01;1.67;;;1.57;;
21886;SDS011;11108;49.988;8.182;2023-03-20T06:05:26;1.67;;;1.57;;
21886;SDS011;11108;49.988;8.182;2023-03-20T06:07:52;1.90;;;1.80;;
21886;SDS011;11108;49.988;8.182;2023-03-20T06:10:17;1.70;;;1.60;;
21886;SDS011;11108;49.988;8.182;2023-03-20T06:12:44;1.93;;;1.83;;
21886;SDS011;11108;49.988;8.182;2023-03-20T06:15:09;2.13;;;1.93;;
21886;SDS011;11108;49.988;8.182;2023-03-20T06:17:35;2.43;;;2.10;;
21886;SDS011;11108;49.988;8.182;2023-03-20T06:20:00;2.33;;;2.13;;
21886;SDS011;11108;49.988;8.182;2023-03-20T06:22:25;2.80;;;1.80;;
21886;SDS011;11108;49.988;8.182;2023-03-20T06:24:51;6.10;;;2.20;;
21886;SDS011;11108;49.988;8.182;2023-03-20T06:27:16;4.10;;;2.30;;
21886;SDS011;11108;49.988;8.182;2023-03-20T06:29:42;4.13;;;2.53;;
21886;SDS011;11108;49.988;8.182;2023-03-20T06:32:07;4.07;;;3.03;;
21886;SDS011;11108;49.988;8.182;2023-03-20T06:34:33;4.90;;;2.53;;
21886;SDS011;11108;49.988;8.182;2023-03-20T06:36:58;7.20;;;3.00;;
21886;SDS011;11108;49.988;8.182;2023-03-20T06:39:23;4.30;;;2.90;;
21886;SDS011;11108;49.988;8.182;2023-03-20T06:41:48;2.90;;;2.70;;
21886;SDS011;11108;49.988;8.182;2023-03-20T06:44:14;7.20;;;3.03;;
21886;SDS011;11108;49.988;8.182;2023-03-20T06:46:39;5.33;;;2.73;;
21886;SDS011;11108;49.988;8.182;2023-03-20T06:49:05;4.87;;;2.80;;
21886;SDS011;11108;49.988;8.182;2023-03-20T06:51:30;3.27;;;2.57;;
21886;SDS011;11108;49.988;8.182;2023-03-20T06:53:55;4.17;;;3.10;;
21886;SDS011;11108;49.988;8.182;2023-03-20T06:56:20;4.10;;;2.30;;
21886;SDS011;11108;49.988;8.182;2023-03-20T06:58:46;4.03;;;2.63;;
21886;SDS011;11108;49.988;8.182;2023-03-20T07:01:11;4.57;;;2.80;;
21886;SDS011;11108;49.988;8.182;2023-03-20T07:03:37;4.57;;;2.23;;
21886;SDS011;11108;49.988;8.182;2023-03-20T07:06:04;4.77;;;2.60;;
21886;SDS011;11108;49.988;8.182;2023-03-20T07:08:30;6.27;;;2.57;;
21886;SDS011;11108;49.988;8.182;2023-03-20T07:10:55;6.50;;;2.87;;
21886;SDS011;11108;49.988;8.182;2023-03-20T07:13:21;10.50;;;2.77;;
21886;SDS011;11108;49.988;8.182;2023-03-20T07:15:46;4.07;;;2.67;;
21886;SDS011;11108;49.988;8.182;2023-03-20T07:18:11;2.97;;;2.27;;
21886;SDS011;11108;49.988;8.182;2023-03-20T07:20:36;5.03;;;2.80;;
21886;SDS011;11108;49.988;8.182;2023-03-20T07:23:01;3.00;;;2.20;;
21886;SDS011;11108;49.988;8.182;2023-03-20T07:25:27;3.30;;;2.43;;
21886;SDS011;11108;49.988;8.182;2023-03-20T07:27:52;4.63;;;2.73;;
21886;SDS011;11108;49.988;8.182;2023-03-20T07:30:17;4.07;;;2.77;;
21886;SDS011;11108;49.988;8.182;2023-03-20T07:32:43;2.90;;;2.70;;
21886;SDS011;11108;49.988;8.182;2023-03-20T07:35:09;6.40;;;3.17;;
21886;SDS011;11108;49.988;8.182;2023-03-20T07:37:34;2.67;;;2.47;;
21886;SDS011;11108;49.988;8.182;2023-03-20T07:39:59;3.70;;;2.70;;
21886;SDS011;11108;49.988;8.182;2023-03-20T07:42:25;3.23;;;2.50;;
21886;SDS011;11108;49.988;8.182;2023-03-20T07:44:50;5.33;;;3.17;;
21886;SDS011;11108;49.988;8.182;2023-03-20T07:47:16;3.10;;;2.80;;
21886;SDS011;11108;49.988;8.182;2023-03-20T07:49:41;3.43;;;3.17;;
21886;SDS011;11108;49.988;8.182;2023-03-20T07:52:07;3.37;;;3.03;;
21886;SDS011;11108;49.988;8.182;2023-03-20T07:54:32;2.97;;;2.60;;
21886;SDS011;11108;49.988;8.182;2023-03-20T07:56:57;3.97;;;3.00;;
21886;SDS011;11108;49.988;8.182;2023-03-20T07:59:22;5.07;;;3.10;;
21886;SDS011;11108;49.988;8.182;2023-03-20T08:01:48;4.03;;;2.73;;
21886;SDS011;11108;49.988;8.182;2023-03-20T08:04:13;3.63;;;2.70;;
21886;SDS011;11108;49.988;8.182;2023-03-20T08:06:38;3.97;;;2.97;;
21886;SDS011;11108;49.988;8.182;2023-03-20T08:09:04;3.03;;;2.70;;
21886;SDS011;11108;49.988;8.182;2023-03-20T08:11:29;3.23;;;3.00;;
21886;SDS011;11108;49.988;8.182;2023-03-20T08:13:54;3.50;;;3.20;;
21886;SDS011;11108;49.988;8.182;2023-03-20T08:16:20;2.70;;;2.57;;
21886;SDS011;11108;49.988;8.182;2023-03-20T08:18:45;3.20;;;2.90;;
21886;SDS011;11108;49.988;8.182;2023-03-20T08:21:10;3.43;;;3.10;;
21886;SDS011;11108;49.988;8.182;2023-03-20T08:23:35;3.43;;;3.13;;
21886;SDS011;11108;49.988;8.182;2023-03-20T08:26:01;3.40;;;2.90;;
21886;SDS011;11108;49.988;8.182;2023-03-20T08:28:26;2.93;;;2.73;;
21886;SDS011;11108;49.988;8.182;2023-03-20T08:30:51;4.13;;;3.10;;
21886;SDS011;11108;49.988;8.182;2023-03-20T08:33:16;3.83;;;3.40;;
21886;SDS011;11108;49.988;8.182;2023-03-20T08:35:42;3.10;;;2.90;;
21886;SDS011;11108;49.988;8.182;2023-03-20T08:38:16;2.77;;;2.57;;
21886;SDS011;11108;49.988;8.182;2023-03-20T08:40:42;5.53;;;3.00;;
21886;SDS011;11108;49.988;8.182;2023-03-20T08:43:07;4.33;;;2.90;;
21886;SDS011;11108;49.988;8.182;2023-03-20T08:45:32;3.40;;;3.10;;
21886;SDS011;11108;49.988;8.182;2023-03-20T08:47:58;3.53;;;3.03;;
21886;SDS011;11108;49.988;8.182;2023-03-20T08:50:23;3.27;;;2.97;;
21886;SDS011;11108;49.988;8.182;2023-03-20T08:52:49;3.93;;;3.17;;
21886;SDS011;11108;49.988;8.182;2023-03-20T08:55:14;3.70;;;3.40;;
21886;SDS011;11108;49.988;8.182;2023-03-20T08:57:40;3.13;;;2.80;;
21886;SDS011;11108;49.988;8.182;2023-03-20T09:00:06;4.00;;;3.13;;
21886;SDS011;11108;49.988;8.182;2023-03-20T09:02:33;3.27;;;2.97;;
21886;SDS011;11108;49.988;8.182;2023-03-20T09:04:58;3.27;;;2.97;;
21886;SDS011;11108;49.988;8.182;2023-03-20T09:07:23;3.77;;;2.93;;
21886;SDS011;11108;49.988;8.182;2023-03-20T09:09:48;3.63;;;3.33;;
21886;SDS011;11108;49.988;8.182;2023-03-20T09:12:14;4.37;;;3.37;;
21886;SDS011;11108;49.988;8.182;2023-03-20T09:14:39;3.23;;;3.03;;
21886;SDS011;11108;49.988;8.182;2023-03-20T09:17:04;3.57;;;3.27;;
21886;SDS011;11108;49.988;8.182;2023-03-20T09:19:30;3.43;;;3.00;;
21886;SDS011;11108;49.988;8.182;2023-03-20T09:21:55;2.57;;;2.37;;
21886;SDS011;11108;49.988;8.182;2023-03-20T09:24:20;3.13;;;2.90;;
21886;SDS011;11108;49.988;8.182;2023-03-20T09:26:45;3.40;;;3.10;;
21886;SDS011;11108;49.988;8.182;2023-03-20T09:29:11;3.63;;;3.10;;
21886;SDS011;11108;49.988;8.182;2023-03-20T09:31:36;2.83;;;2.53;;
21886;SDS011;11108;49.988;8.182;2023-03-20T09:34:01;2.87;;;2.67;;
21886;SDS011;11108;49.988;8.182;2023-03-20T09:36:26;3.33;;;3.03;;
21886;SDS011;11108;49.988;8.182;2023-03-20T09:38:52;3.10;;;2.80;;
21886;SDS011;11108;49.988;8.182;2023-03-20T09:41:20;3.00;;;2.80;;
21886;SDS011;11108;49.988;8.182;2023-03-20T09:49:06;2.97;;;2.77;;
21886;SDS011;11108;49.988;8.182;2023-03-20T09:56:55;2.80;;;2.60;;
21886;SDS011;11108;49.988;8.182;2023-03-20T09:59:20;2.60;;;2.40;;
21886;SDS011;11108;49.988;8.182;2023-03-20T10:01:53;2.73;;;2.53;;
21886;SDS011;11108;49.988;8.182;2023-03-20T10:04:19;2.50;;;2.40;;
21886;SDS011;11108;49.988;8.182;2023-03-20T10:06:45;2.70;;;2.50;;
21886;SDS011;11108;49.988;8.182;2023-03-20T10:09:20;2.73;;;2.53;;
21886;SDS011;11108;49.988;8.182;2023-03-20T10:11:49;2.50;;;2.30;;
21886;SDS011;11108;49.988;8.182;2023-03-20T10:17:23;2.80;;;2.60;;
21886;SDS011;11108;49.988;8.182;2023-03-20T10:20:01;2.77;;;2.57;;
21886;SDS011;11108;49.988;8.182;2023-03-20T10:24:57;2.50;;;2.40;;
21886;SDS011;11108;49.988;8.182;2023-03-20T10:27:25;2.50;;;2.30;;
21886;SDS011;11108;49.988;8.182;2023-03-20T10:32:41;2.33;;;2.17;;
21886;SDS011;11108;49.988;8.182;2023-03-20T10:35:17;2.83;;;2.50;;
21886;SDS011;11108;49.988;8.182;2023-03-20T10:37:51;2.40;;;2.20;;
21886;SDS011;11108;49.988;8.182;2023-03-20T10:42:50;2.50;;;2.30;;
21886;SDS011;11108;49.988;8.182;2023-03-20T10:47:42;2.53;;;2.33;;
21886;SDS011;11108;49.988;8.182;2023-03-20T10:50:10;2.93;;;2.73;;
21886;SDS011;11108;49.988;8.182;2023-03-20T10:52:39;2.77;;;2.57;;
21886;SDS011;11108;49.988;8.182;2023-03-20T10:55:06;2.63;;;2.13;;
21886;SDS011;11108;49.988;8.182;2023-03-20T10:57:33;3.53;;;2.90;;
21886;SDS011;11108;49.988;8.182;2023-03-20T11:00:00;3.37;;;3.07;;
21886;SDS011;11108;49.988;8.182;2023-03-20T11:02:29;11.20;;;3.87;;
21886;SDS011;11108;49.988;8.182;2023-03-20T11:04:54;17.23;;;4.07;;
21886;SDS011;11108;49.988;8.182;2023-03-20T11:12:31;7.37;;;3.73;;
21886;SDS011;11108;49.988;8.182;2023-03-20T11:14:58;7.13;;;4.13;;
21886;SDS011;11108;49.988;8.182;2023-03-20T11:17:27;6.73;;;3.90;;
21886;SDS011;11108;49.988;8.182;2023-03-20T11:19:52;5.10;;;3.47;;
21886;SDS011;11108;49.988;8.182;2023-03-20T11:24:46;9.07;;;3.87;;
21886;SDS011;11108;49.988;8.182;2023-03-20T11:27:19;6.27;;;3.50;;
21886;SDS011;11108;49.988;8.182;2023-03-20T11:29:48;3.57;;;2.90;;
21886;SDS011;11108;49.988;8.182;2023-03-20T11:34:40;8.70;;;3.30;;
21886;SDS011;11108;49.988;8.182;2023-03-20T11:37:19;2.90;;;2.53;;
21886;SDS011;11108;49.988;8.182;2023-03-20T11:39:58;7.50;;;2.73;;
21886;SDS011;11108;49.988;8.182;2023-03-20T11:42:24;4.43;;;3.00;;
21886;SDS011;11108;49.988;8.182;2023-03-20T11:44:57;4.70;;;2.40;;
21886;SDS011;11108;49.988;8.182;2023-03-20T11:47:24;4.30;;;3.03;;
21886;SDS011;11108;49.988;8.182;2023-03-20T11:49:54;3.73;;;3.10;;
21886;SDS011;11108;49.988;8.182;2023-03-20T11:52:20;3.10;;;2.47;;
21886;SDS011;11108;49.988;8.182;2023-03-20T11:54:50;2.50;;;2.30;;
21886;SDS011;11108;49.988;8.182;2023-03-20T11:59:53;3.57;;;2.43;;
21886;SDS011;11108;49.988;8.182;2023-03-20T12:02:20;4.83;;;2.50;;
21886;SDS011;11108;49.988;8.182;2023-03-20T12:04:46;2.43;;;2.23;;
21886;SDS011;11108;49.988;8.182;2023-03-20T12:09:39;3.93;;;2.40;;
21886;SDS011;11108;49.988;8.182;2023-03-20T12:14:55;2.33;;;2.13;;
21886;SDS011;11108;49.988;8.182;2023-03-20T12:19:54;2.33;;;1.83;;
21886;SDS011;11108;49.988;8.182;2023-03-20T12:22:29;2.00;;;1.90;;
21886;SDS011;11108;49.988;8.182;2023-03-20T12:25:41;4.23;;;2.30;;
21886;SDS011;11108;49.988;8.182;2023-03-20T12:27:45;2.23;;;2.00;;
21886;SDS011;11108;49.988;8.182;2023-03-20T12:30:24;1.93;;;1.77;;
21886;SDS011;11108;49.988;8.182;2023-03-20T12:32:55;2.43;;;2.20;;
21886;SDS011;11108;49.988;8.182;2023-03-20T12:35:27;2.97;;;2.57;;
21886;SDS011;11108;49.988;8.182;2023-03-20T12:37:52;1.83;;;1.73;;
21886;SDS011;11108;49.988;8.182;2023-03-20T12:40:18;1.80;;;1.70;;
21886;SDS011;11108;49.988;8.182;2023-03-20T12:55:24;2.43;;;1.90;;
21886;SDS011;11108;49.988;8.182;2023-03-20T12:58:00;2.40;;;2.00;;
21886;SDS011;11108;49.988;8.182;2023-03-20T13:00:35;2.27;;;1.90;;
21886;SDS011;11108;49.988;8.182;2023-03-20T13:05:44;2.07;;;1.83;;
21886;SDS011;11108;49.988;8.182;2023-03-20T13:10:55;2.50;;;1.77;;
21886;SDS011;11108;49.988;8.182;2023-03-20T13:13:27;1.70;;;1.60;;
21886;SDS011;11108;49.988;8.182;2023-03-20T13:21:12;2.33;;;1.70;;
21886;SDS011;11108;49.988;8.182;2023-03-20T13:23:45;2.10;;;1.90;;
21886;SDS011;11108;49.988;8.182;2023-03-20T13:39:11;1.67;;;1.57;;
21886;SDS011;11108;49.988;8.182;2023-03-20T13:41:38;1.40;;;1.40;;
21886;SDS011;11108;49.988;8.182;2023-03-20T13:44:03;1.73;;;1.67;;
21886;SDS011;11108;49.988;8.182;2023-03-20T13:46:32;2.03;;;1.80;;
21886;SDS011;11108;49.988;8.182;2023-03-20T13:49:01;1.77;;;1.60;;
21886;SDS011;11108;49.988;8.182;2023-03-20T13:51:30;2.00;;;1.90;;
21886;SDS011;11108;49.988;8.182;2023-03-20T13:56:38;2.00;;;1.90;;
21886;SDS011;11108;49.988;8.182;2023-03-20T13:59:10;1.77;;;1.67;;
21886;SDS011;11108;49.988;8.182;2023-03-20T14:04:11;2.03;;;1.63;;
21886;SDS011;11108;49.988;8.182;2023-03-20T14:06:46;1.70;;;1.60;;
21886;SDS011;11108;49.988;8.182;2023-03-20T14:09:34;1.70;;;1.60;;
21886;SDS011;11108;49.988;8.182;2023-03-20T14:12:03;1.60;;;1.50;;
21886;SDS011;11108;49.988;8.182;2023-03-20T14:14:29;1.50;;;1.40;;
21886;SDS011;11108;49.988;8.182;2023-03-20T14:19:38;1.70;;;1.60;;
21886;SDS011;11108;49.988;8.182;2023-03-20T14:22:03;1.53;;;1.43;;
21886;SDS011;11108;49.988;8.182;2023-03-20T14:24:32;1.67;;;1.33;;
21886;SDS011;11108;49.988;8.182;2023-03-20T14:26:59;1.60;;;1.50;;
21886;SDS011;11108;49.988;8.182;2023-03-20T14:31:53;1.60;;;1.60;;
21886;SDS011;11108;49.988;8.182;2023-03-20T14:34:26;2.10;;;1.90;;
21886;SDS011;11108;49.988;8.182;2023-03-20T14:41:54;1.57;;;1.53;;
21886;SDS011;11108;49.988;8.182;2023-03-20T14:51:59;1.50;;;1.40;;
21886;SDS011;11108;49.988;8.182;2023-03-20T14:54:27;1.30;;;1.20;;
21886;SDS011;11108;49.988;8.182;2023-03-20T14:56:53;1.40;;;1.30;;
21886;SDS011;11108;49.988;8.182;2023-03-20T14:59:19;1.70;;;1.53;;
21886;SDS011;11108;49.988;8.182;2023-03-20T15:01:59;1.47;;;1.27;;
21886;SDS011;11108;49.988;8.182;2023-03-20T15:04:37;1.20;;;1.20;;
21886;SDS011;11108;49.988;8.182;2023-03-20T15:07:12;1.50;;;1.40;;
21886;SDS011;11108;49.988;8.182;2023-03-20T15:09:39;1.43;;;1.10;;
21886;SDS011;11108;49.988;8.182;2023-03-20T15:12:07;1.30;;;1.30;;
21886;SDS011;11108;49.988;8.182;2023-03-20T15:14:34;1.97;;;1.50;;
21886;SDS011;11108;49.988;8.182;2023-03-20T15:17:02;1.50;;;1.50;;
21886;SDS011;11108;49.988;8.182;2023-03-20T15:19:28;1.13;;;1.13;;
21886;SDS011;11108;49.988;8.182;2023-03-20T15:21:53;1.30;;;1.30;;
21886;SDS011;11108;49.988;8.182;2023-03-20T15:24:19;1.10;;;1.10;;
21886;SDS011;11108;49.988;8.182;2023-03-20T15:26:45;1.20;;;1.20;;
21886;SDS011;11108;49.988;8.182;2023-03-20T15:29:11;1.60;;;1.30;;
21886;SDS011;11108;49.988;8.182;2023-03-20T15:31:37;1.93;;;1.77;;
21886;SDS011;11108;49.988;8.182;2023-03-20T15:34:20;1.63;;;1.53;;
21886;SDS011;11108;49.988;8.182;2023-03-20T15:36:46;1.07;;;0.97;;
21886;SDS011;11108;49.988;8.182;2023-03-20T15:41:37;1.10;;;1.10;;
21886;SDS011;11108;49.988;8.182;2023-03-20T15:44:10;1.23;;;1.23;;
21886;SDS011;11108;49.988;8.182;2023-03-20T15:46:36;1.23;;;1.13;;
21886;SDS011;11108;49.988;8.182;2023-03-20T15:49:03;1.10;;;1.07;;
21886;SDS011;11108;49.988;8.182;2023-03-20T15:51:28;1.43;;;1.17;;
21886;SDS011;11108;49.988;8.182;2023-03-20T15:53:53;1.33;;;1.10;;
21886;SDS011;11108;49.988;8.182;2023-03-20T15:56:19;1.37;;;1.27;;
21886;SDS011;11108;49.988;8.182;2023-03-20T15:58:49;1.70;;;1.60;;
21886;SDS011;11108;49.988;8.182;2023-03-20T16:01:17;1.10;;;1.10;;
21886;SDS011;11108;49.988;8.182;2023-03-20T16:03:43;1.37;;;1.30;;
21886;SDS011;11108;49.988;8.182;2023-03-20T16:06:09;1.70;;;1.60;;
21886;SDS011;11108;49.988;8.182;2023-03-20T16:08:35;2.30;;;1.50;;
21886;SDS011;11108;49.988;8.182;2023-03-20T16:11:02;1.60;;;1.50;;
21886;SDS011;11108;49.988;8.182;2023-03-20T16:13:30;1.50;;;1.30;;
21886;SDS011;11108;49.988;8.182;2023-03-20T16:15:56;1.50;;;1.40;;
21886;SDS011;11108;49.988;8.182;2023-03-20T16:18:21;1.23;;;1.23;;
21886;SDS011;11108;49.988;8.182;2023-03-20T16:20:52;1.53;;;1.40;;
21886;SDS011;11108;49.988;8.182;2023-03-20T16:23:25;2.97;;;1.20;;
21886;SDS011;11108;49.988;8.182;2023-03-20T16:25:58;1.40;;;1.30;;
21886;SDS011;11108;49.988;8.182;2023-03-20T16:28:25;1.43;;;1.37;;
21886;SDS011;11108;49.988;8.182;2023-03-20T16:31:17;1.07;;;1.07;;
21886;SDS011;11108;49.988;8.182;2023-03-20T16:33:50;1.30;;;1.20;;
21886;SDS011;11108;49.988;8.182;2023-03-20T16:36:20;2.47;;;1.53;;
21886;SDS011;11108;49.988;8.182;2023-03-20T16:39:46;1.30;;;1.20;;
21886;SDS011;11108;49.988;8.182;2023-03-20T16:41:41;1.43;;;1.33;;
21886;SDS011;11108;49.988;8.182;2023-03-20T16:44:19;1.07;;;1.07;;
21886;SDS011;11108;49.988;8.182;2023-03-20T16:46:58;1.37;;;1.37;;
21886;SDS011;11108;49.988;8.182;2023-03-20T16:55:32;2.60;;;1.73;;
21886;SDS011;11108;49.988;8.182;2023-03-20T17:08:28;1.90;;;1.23;;
21886;SDS011;11108;49.988;8.182;2023-03-20T17:11:25;1.10;;;1.10;;
21886;SDS011;11108;49.988;8.182;2023-03-20T17:17:25;1.77;;;1.40;;
21886;SDS011;11108;49.988;8.182;2023-03-20T17:19:50;1.17;;;1.10;;
21886;SDS011;11108;49.988;8.182;2023-03-20T17:22:18;1.10;;;1.10;;
21886;SDS011;11108;49.988;8.182;2023-03-20T17:24:43;1.70;;;1.60;;
21886;SDS011;11108;49.988;8.182;2023-03-20T17:27:12;2.20;;;1.17;;
21886;SDS011;11108;49.988;8.182;2023-03-20T17:29:38;1.33;;;1.23;;